Time;durP1;ratioP1;P1;durP2;ratioP2;P2;SDS_P1;SDS_P2;PMS_P1;PMS_P2;Temp;Humidity;BMP_temperature;BMP_pressure;BME280_temperature;BME280_humidity;BME280_pressure;Samples;Min_cycle;Max_cycle;Signal;HPM_P1;HPM_P2
2021/11/15 00:00:53;;;;;;;1.92;1.15;;;19.60;59.80;;;;;;5035923;28;20159;-82
2021/11/15 00:03:19;;;;;;;2.92;1.65;;;19.60;60.30;;;;;;5051089;28;20159;-82
2021/11/15 00:05:45;;;;;;;3.88;1.73;;;19.60;59.90;;;;;;5034559;28;20248;-82
2021/11/15 00:08:10;;;;;;;2.70;1.30;;;19.60;59.90;;;;;;5034425;28;20170;-82
2021/11/15 00:10:36;;;;;;;2.42;1.50;;;19.60;60.10;;;;;;5034546;28;20155;-82
2021/11/15 00:13:02;;;;;;;3.60;1.25;;;19.60;59.70;;;;;;5042418;28;20248;-82
2021/11/15 00:15:29;;;;;;;4.50;1.50;;;19.60;59.70;;;;;;5037612;28;20522;-82
2021/11/15 00:17:56;;;;;;;2.10;1.17;;;19.60;59.80;;;;;;5054781;28;20262;-82
2021/11/15 00:20:23;;;;;;;2.83;1.15;;;19.60;59.70;;;;;;5037968;28;20165;-82
2021/11/15 00:22:48;;;;;;;2.58;1.45;;;19.60;59.60;;;;;;5053790;28;20159;-82
2021/11/15 00:25:15;;;;;;;2.50;1.40;;;19.60;59.60;;;;;;5055417;28;20159;-83
2021/11/15 00:27:40;;;;;;;2.30;1.23;;;19.60;59.40;;;;;;5037657;28;20287;-82
2021/11/15 00:30:07;;;;;;;2.22;1.20;;;19.70;59.50;;;;;;5055443;28;20192;-82
2021/11/15 00:32:33;;;;;;;4.45;1.50;;;19.60;59.60;;;;;;5054010;28;20548;-82
2021/11/15 00:34:58;;;;;;;3.17;1.30;;;19.60;59.60;;;;;;5037514;28;20154;-82
2021/11/15 00:37:24;;;;;;;3.03;1.40;;;19.60;59.70;;;;;;5037832;28;20157;-82
2021/11/15 00:39:50;;;;;;;2.90;1.10;;;19.60;59.60;;;;;;5053907;28;20150;-82
2021/11/15 00:42:16;;;;;;;1.58;1.30;;;19.50;59.80;;;;;;5054148;28;20158;-82
2021/11/15 00:44:42;;;;;;;2.13;1.42;;;19.50;59.70;;;;;;5053676;28;20200;-82
2021/11/15 00:47:08;;;;;;;1.98;1.27;;;19.60;59.90;;;;;;5021093;28;20161;-82
2021/11/15 00:49:34;;;;;;;2.20;1.25;;;19.60;59.80;;;;;;5021119;28;20501;-82
2021/11/15 00:51:59;;;;;;;2.30;1.20;;;19.50;60.10;;;;;;5037857;28;20177;-82
2021/11/15 00:54:25;;;;;;;3.88;1.50;;;19.60;59.90;;;;;;5037179;28;20253;-82
2021/11/15 00:56:50;;;;;;;3.83;1.30;;;19.50;60.10;;;;;;5053676;28;20166;-82
2021/11/15 00:59:16;;;;;;;1.95;1.13;;;19.50;60.10;;;;;;5036698;28;20173;-82
2021/11/15 01:01:42;;;;;;;2.00;1.35;;;19.40;60.10;;;;;;5037067;28;20222;-82
2021/11/15 01:04:07;;;;;;;3.72;1.50;;;19.50;60.10;;;;;;5036707;28;20170;-82
2021/11/15 01:06:33;;;;;;;1.63;1.35;;;19.50;60.10;;;;;;5036845;28;20177;-82
2021/11/15 01:08:59;;;;;;;1.92;1.20;;;19.50;60.40;;;;;;5036854;28;20627;-82
2021/11/15 01:11:25;;;;;;;3.58;1.40;;;19.50;60.50;;;;;;5053278;28;20154;-82
2021/11/15 01:13:51;;;;;;;2.22;1.08;;;19.50;60.40;;;;;;5036033;28;20696;-82
2021/11/15 01:16:18;;;;;;;1.33;1.13;;;19.50;60.20;;;;;;5054520;28;20245;-82
2021/11/15 01:18:43;;;;;;;2.40;1.20;;;19.50;60.10;;;;;;5053220;28;20550;-82
2021/11/15 01:21:10;;;;;;;1.90;1.35;;;19.50;60.60;;;;;;5053142;28;20249;-82
2021/11/15 01:23:36;;;;;;;1.90;1.35;;;19.50;60.70;;;;;;5020272;28;20917;-82
2021/11/15 01:26:03;;;;;;;2.22;1.35;;;19.50;60.70;;;;;;5053114;28;20155;-82
2021/11/15 01:28:28;;;;;;;2.55;1.42;;;19.50;60.50;;;;;;5036415;28;20162;-82
2021/11/15 01:30:54;;;;;;;1.48;1.13;;;19.50;60.40;;;;;;5052925;28;20197;-82
2021/11/15 01:33:20;;;;;;;3.97;1.30;;;19.50;60.50;;;;;;5053304;28;20255;-82
2021/11/15 01:35:45;;;;;;;4.30;1.45;;;19.50;60.50;;;;;;5052839;28;20241;-82
2021/11/15 01:38:11;;;;;;;2.65;1.20;;;19.50;60.40;;;;;;5036191;28;20154;-82
2021/11/15 01:40:37;;;;;;;2.80;1.20;;;19.50;60.50;;;;;;5053101;28;20536;-82
2021/11/15 01:43:03;;;;;;;2.20;1.35;;;19.50;60.70;;;;;;5036362;28;20166;-82
2021/11/15 01:45:30;;;;;;;2.97;1.50;;;19.50;60.70;;;;;;5019556;28;20189;-82
2021/11/15 01:48:01;;;;;;;3.40;1.30;;;19.40;60.50;;;;;;5035945;28;20247;-82
2021/11/15 01:50:28;;;;;;;1.45;1.20;;;19.50;60.70;;;;;;5035915;28;20295;-82
2021/11/15 01:52:54;;;;;;;2.28;1.42;;;19.40;60.40;;;;;;5036078;28;20261;-82
2021/11/15 01:55:20;;;;;;;1.40;1.27;;;19.50;60.80;;;;;;5036159;28;20255;-82
2021/11/15 01:57:46;;;;;;;2.55;1.20;;;19.50;60.50;;;;;;5053630;28;20625;-82
2021/11/15 02:00:16;;;;;;;1.30;1.20;;;19.50;60.80;;;;;;5052475;28;20632;-82
2021/11/15 02:02:41;;;;;;;1.30;1.02;;;19.50;60.70;;;;;;5052468;28;20176;-82
2021/11/15 02:05:07;;;;;;;2.88;1.15;;;19.40;60.70;;;;;;5035731;28;20625;-82
2021/11/15 02:07:33;;;;;;;2.53;1.02;;;19.50;60.80;;;;;;5053540;28;20142;-82
2021/11/15 02:09:59;;;;;;;1.98;1.33;;;19.40;60.50;;;;;;5036073;28;20170;-82
2021/11/15 02:12:26;;;;;;;2.15;1.25;;;19.40;60.50;;;;;;5051888;28;20259;-82
2021/11/15 02:14:52;;;;;;;1.75;1.05;;;19.50;60.70;;;;;;5035810;28;20639;-82
2021/11/15 02:17:18;;;;;;;2.47;1.27;;;19.50;60.60;;;;;;5052314;28;20166;-82
2021/11/15 02:19:44;;;;;;;1.42;1.23;;;19.40;60.30;;;;;;5052343;28;20609;-82
2021/11/15 02:22:10;;;;;;;1.35;1.25;;;19.40;60.60;;;;;;5052238;28;20165;-82
2021/11/15 02:24:36;;;;;;;1.75;1.13;;;19.40;60.70;;;;;;5035460;28;20627;-82
2021/11/15 02:27:03;;;;;;;2.47;1.13;;;19.40;60.50;;;;;;5052469;28;20151;-82
2021/11/15 02:29:29;;;;;;;2.60;1.38;;;19.40;60.50;;;;;;5035518;28;20189;-82
2021/11/15 02:31:55;;;;;;;2.50;1.60;;;19.40;60.40;;;;;;5053372;28;20565;-82
2021/11/15 02:34:20;;;;;;;4.45;1.50;;;19.50;60.50;;;;;;5035472;28;20601;-82
2021/11/15 02:36:46;;;;;;;1.70;1.25;;;19.40;60.30;;;;;;5035521;28;20173;-82
2021/11/15 02:39:12;;;;;;;2.00;1.40;;;19.40;60.50;;;;;;5051998;28;20158;-82
2021/11/15 02:41:38;;;;;;;1.20;1.10;;;19.40;60.70;;;;;;5035455;28;20300;-82
2021/11/15 02:44:05;;;;;;;4.00;1.50;;;19.50;60.50;;;;;;5035228;28;20170;-82
2021/11/15 02:46:32;;;;;;;2.25;1.30;;;19.40;60.50;;;;;;5039529;28;20158;-82
2021/11/15 02:48:57;;;;;;;1.70;1.02;;;19.40;60.40;;;;;;5055895;28;20200;-82
2021/11/15 02:51:24;;;;;;;1.63;1.20;;;19.40;60.70;;;;;;5056093;28;20158;-82
2021/11/15 02:53:50;;;;;;;2.95;1.23;;;19.40;60.60;;;;;;5055807;28;20293;-82
2021/11/15 02:56:16;;;;;;;2.20;1.38;;;19.40;60.80;;;;;;5038961;28;20233;-82
2021/11/15 02:58:41;;;;;;;3.33;1.20;;;19.40;60.50;;;;;;5055928;28;20154;-82
2021/11/15 03:01:10;;;;;;;1.67;1.20;;;19.40;60.70;;;;;;5038985;28;20161;-82
2021/11/15 03:03:36;;;;;;;2.88;1.23;;;19.40;60.40;;;;;;5055529;28;20340;-82
2021/11/15 03:06:02;;;;;;;1.60;1.02;;;19.40;60.60;;;;;;5055681;28;20162;-82
2021/11/15 03:08:27;;;;;;;1.45;1.13;;;19.40;60.30;;;;;;5038879;28;20162;-82
2021/11/15 03:10:58;;;;;;;1.98;1.13;;;19.40;60.30;;;;;;5055532;28;20489;-82
2021/11/15 03:13:24;;;;;;;2.05;1.02;;;19.40;60.30;;;;;;5051462;28;20698;-82
2021/11/15 03:15:50;;;;;;;2.47;1.40;;;19.40;60.40;;;;;;5052328;28;20166;-82
2021/11/15 03:18:18;;;;;;;1.60;1.15;;;19.40;60.40;;;;;;5051963;28;20181;-82
2021/11/15 03:20:48;;;;;;;1.80;1.10;;;19.40;60.40;;;;;;5052038;28;20159;-82
2021/11/15 03:23:16;;;;;;;2.25;1.30;;;19.40;60.40;;;;;;5035419;28;20169;-82
2021/11/15 03:25:42;;;;;;;2.38;1.10;;;19.40;60.40;;;;;;5035658;28;20703;-82
2021/11/15 03:28:10;;;;;;;1.88;1.27;;;19.40;60.30;;;;;;5019028;28;20175;-82
2021/11/15 03:30:35;;;;;;;3.35;1.50;;;19.30;60.20;;;;;;5035377;28;20576;-82
2021/11/15 03:33:01;;;;;;;2.50;1.20;;;19.40;60.30;;;;;;5051704;28;20653;-82
2021/11/15 03:35:27;;;;;;;2.42;1.33;;;19.40;60.20;;;;;;5036435;28;20163;-82
2021/11/15 03:37:53;;;;;;;1.95;1.15;;;19.40;60.50;;;;;;5035452;28;20158;-83
2021/11/15 03:40:20;;;;;;;1.48;1.20;;;19.40;60.30;;;;;;5019015;28;20621;-82
2021/11/15 03:42:47;;;;;;;1.42;1.33;;;19.40;60.30;;;;;;5019069;28;20191;-83
2021/11/15 03:45:13;;;;;;;1.73;1.23;;;19.40;60.30;;;;;;5036084;28;20229;-83
2021/11/15 03:47:40;;;;;;;2.25;1.20;;;19.40;60.20;;;;;;5019455;28;20597;-83
2021/11/15 03:50:06;;;;;;;1.50;1.20;;;19.40;60.20;;;;;;5019205;28;20167;-83
2021/11/15 03:52:32;;;;;;;2.58;1.30;;;19.30;60.10;;;;;;5035938;28;20195;-83
2021/11/15 03:54:57;;;;;;;2.95;1.45;;;19.40;60.30;;;;;;5035941;28;20178;-83
2021/11/15 03:57:23;;;;;;;2.95;1.15;;;19.40;60.20;;;;;;5034908;28;20175;-83
2021/11/15 03:59:49;;;;;;;3.22;1.30;;;19.40;60.30;;;;;;5035753;28;20156;-83
2021/11/15 04:02:16;;;;;;;1.98;1.33;;;19.40;60.20;;;;;;5019021;28;20173;-83
2021/11/15 04:04:51;;;;;;;2.45;1.10;;;19.40;60.20;;;;;;5035844;28;20217;-83
2021/11/15 04:07:27;;;;;;;1.95;1.17;;;19.40;60.20;;;;;;5035482;28;20158;-83
2021/11/15 04:09:55;;;;;;;2.13;1.30;;;19.30;60.10;;;;;;5035582;28;20185;-83
2021/11/15 04:12:22;;;;;;;1.45;1.23;;;19.40;59.50;;;;;;5037502;28;20187;-83
2021/11/15 04:14:47;;;;;;;1.65;1.20;;;19.40;59.20;;;;;;5056951;28;20516;-83
2021/11/15 04:17:13;;;;;;;1.27;1.05;;;19.50;59.50;;;;;;5055631;28;20149;-83
2021/11/15 04:19:39;;;;;;;2.53;1.52;;;19.50;59.40;;;;;;5055558;28;20154;-83
2021/11/15 04:22:05;;;;;;;2.95;1.40;;;19.50;58.90;;;;;;5038875;28;20688;-83
2021/11/15 04:24:31;;;;;;;1.60;1.20;;;19.40;58.90;;;;;;5038769;28;20189;-83
2021/11/15 04:26:57;;;;;;;3.42;1.50;;;19.50;59.40;;;;;;5055356;28;20158;-83
2021/11/15 04:29:24;;;;;;;1.95;1.55;;;19.50;59.40;;;;;;5056672;28;20288;-83
2021/11/15 04:31:53;;;;;;;1.55;1.20;;;19.50;59.40;;;;;;5055204;28;20150;-83
2021/11/15 04:34:19;;;;;;;1.63;1.25;;;19.50;59.30;;;;;;5056228;28;20176;-83
2021/11/15 04:36:45;;;;;;;1.65;1.27;;;19.50;59.40;;;;;;5038505;28;20154;-83
2021/11/15 04:39:11;;;;;;;1.67;1.13;;;19.50;59.50;;;;;;5022457;28;20190;-83
2021/11/15 04:41:38;;;;;;;1.73;1.00;;;19.40;59.40;;;;;;5038305;28;20163;-83
2021/11/15 04:44:04;;;;;;;1.80;1.30;;;19.50;59.60;;;;;;5038106;28;20671;-83
2021/11/15 04:46:29;;;;;;;2.58;1.10;;;19.50;59.40;;;;;;5038078;28;20154;-83
2021/11/15 04:48:55;;;;;;;2.30;1.30;;;19.50;59.70;;;;;;5054798;28;20182;-83
2021/11/15 04:51:21;;;;;;;1.42;1.30;;;19.50;59.30;;;;;;5038020;28;20155;-82
2021/11/15 04:53:47;;;;;;;1.40;1.17;;;19.50;59.60;;;;;;5055946;28;20204;-83
2021/11/15 04:56:12;;;;;;;2.75;1.33;;;19.60;59.50;;;;;;5056001;28;20284;-83
2021/11/15 04:58:38;;;;;;;1.20;1.10;;;19.60;59.30;;;;;;5022491;28;20173;-83
2021/11/15 05:01:04;;;;;;;1.55;1.10;;;19.60;59.10;;;;;;5038506;28;20158;-83
2021/11/15 05:03:30;;;;;;;2.00;1.17;;;19.60;59.10;;;;;;5037683;28;20668;-82
2021/11/15 05:05:56;;;;;;;1.55;1.33;;;19.60;59.00;;;;;;5054459;28;20154;-83
2021/11/15 05:08:21;;;;;;;3.28;1.35;;;19.60;58.80;;;;;;5054529;28;20241;-83
2021/11/15 05:10:48;;;;;;;2.13;1.10;;;19.70;58.90;;;;;;5037940;28;20208;-83
2021/11/15 05:13:14;;;;;;;2.35;1.10;;;19.70;58.80;;;;;;5034460;28;20237;-83
2021/11/15 05:15:40;;;;;;;1.20;1.10;;;19.70;58.70;;;;;;5034449;28;20171;-82
2021/11/15 05:18:06;;;;;;;1.20;1.10;;;19.70;58.70;;;;;;5033985;28;20159;-83
2021/11/15 05:20:33;;;;;;;1.48;1.00;;;19.70;58.70;;;;;;5050750;28;20205;-83
2021/11/15 05:22:58;;;;;;;2.42;1.48;;;19.60;58.90;;;;;;5034368;28;20198;-83
2021/11/15 05:25:26;;;;;;;1.38;1.10;;;19.70;58.70;;;;;;5034387;28;20170;-83
2021/11/15 05:27:52;;;;;;;2.15;1.20;;;19.70;58.60;;;;;;5017751;28;20171;-83
2021/11/15 05:30:18;;;;;;;1.33;1.00;;;19.70;58.80;;;;;;5017858;28;20301;-83
2021/11/15 05:32:45;;;;;;;1.20;1.02;;;19.70;58.80;;;;;;5034353;28;20188;-83
2021/11/15 05:35:10;;;;;;;2.97;1.15;;;19.70;58.80;;;;;;5050501;28;20165;-83
2021/11/15 05:37:36;;;;;;;1.77;1.10;;;19.70;58.90;;;;;;5034340;28;20626;-83
2021/11/15 05:40:04;;;;;;;1.20;1.10;;;19.60;58.70;;;;;;5017477;28;20185;-83
2021/11/15 05:42:29;;;;;;;1.38;1.00;;;19.70;58.80;;;;;;5017403;28;20522;-82
2021/11/15 05:44:56;;;;;;;1.27;1.08;;;19.70;58.70;;;;;;5050305;28;20217;-83
2021/11/15 05:47:23;;;;;;;2.25;1.23;;;19.70;58.70;;;;;;5016994;28;20163;-83
2021/11/15 05:49:48;;;;;;;1.25;1.05;;;19.70;58.70;;;;;;5034048;28;20242;-83
2021/11/15 05:52:16;;;;;;;1.30;1.13;;;19.70;58.70;;;;;;5017374;28;20290;-82
2021/11/15 05:54:42;;;;;;;1.02;0.80;;;19.70;58.60;;;;;;5017736;28;20597;-83
2021/11/15 05:57:08;;;;;;;2.65;1.30;;;19.70;58.60;;;;;;5033212;28;20155;-83
2021/11/15 05:59:34;;;;;;;1.17;1.08;;;19.70;58.60;;;;;;5033709;28;20672;-83
2021/11/15 06:01:59;;;;;;;1.48;1.00;;;19.70;58.70;;;;;;5033865;28;20150;-83
2021/11/15 06:04:25;;;;;;;1.50;1.15;;;19.70;58.70;;;;;;5050205;28;20171;-83
2021/11/15 06:06:51;;;;;;;2.05;1.13;;;19.70;58.70;;;;;;5033670;28;20155;-83
2021/11/15 06:09:17;;;;;;;1.85;1.25;;;19.70;58.70;;;;;;5033791;28;20261;-83
2021/11/15 06:11:44;;;;;;;1.10;1.00;;;19.70;58.60;;;;;;5050180;28;20628;-83
2021/11/15 06:14:10;;;;;;;1.58;1.05;;;19.70;58.40;;;;;;5049718;28;20222;-83
2021/11/15 06:16:35;;;;;;;1.55;1.40;;;19.70;58.50;;;;;;5049761;28;20212;-83
2021/11/15 06:19:01;;;;;;;1.30;1.20;;;19.70;58.50;;;;;;5049379;28;20209;-83
2021/11/15 06:21:27;;;;;;;1.98;1.10;;;19.70;58.50;;;;;;5049892;28;20179;-82
2021/11/15 06:23:52;;;;;;;1.20;1.10;;;19.70;58.60;;;;;;5017336;28;20171;-82
2021/11/15 06:26:18;;;;;;;1.60;1.23;;;19.70;58.40;;;;;;5016729;28;20201;-83
2021/11/15 06:28:47;;;;;;;2.20;1.15;;;19.70;58.50;;;;;;5017205;28;20182;-82
2021/11/15 06:31:13;;;;;;;1.05;0.98;;;19.80;58.20;;;;;;5018057;28;20274;-82
2021/11/15 06:33:39;;;;;;;1.10;1.00;;;19.80;58.20;;;;;;5035272;28;20194;-82
2021/11/15 06:36:05;;;;;;;1.30;1.20;;;19.80;58.40;;;;;;5034128;28;20178;-82
2021/11/15 06:38:31;;;;;;;1.23;1.13;;;19.80;58.30;;;;;;5032972;28;20193;-82
2021/11/15 06:40:57;;;;;;;2.40;1.23;;;19.80;58.30;;;;;;5049135;28;20225;-82
2021/11/15 06:43:23;;;;;;;1.00;0.90;;;19.70;58.30;;;;;;5034032;28;20155;-82
2021/11/15 06:45:50;;;;;;;2.88;1.27;;;19.70;58.20;;;;;;5032868;28;20155;-82
2021/11/15 06:48:16;;;;;;;1.27;1.10;;;19.70;58.00;;;;;;5049650;28;20155;-82
2021/11/15 06:50:41;;;;;;;2.47;1.00;;;19.80;58.20;;;;;;5032844;28;20238;-82
2021/11/15 06:53:07;;;;;;;1.88;1.30;;;19.80;58.30;;;;;;5032599;28;20244;-83
2021/11/15 06:55:33;;;;;;;1.77;1.13;;;19.70;58.10;;;;;;5033037;28;20672;-83
2021/11/15 06:57:59;;;;;;;3.38;1.20;;;19.70;58.00;;;;;;5049067;28;20159;-82
2021/11/15 07:00:25;;;;;;;2.35;1.15;;;19.80;58.20;;;;;;5016898;28;20159;-80
2021/11/15 07:02:53;;;;;;;1.27;1.17;;;19.80;58.10;;;;;;5033594;28;20193;-82
2021/11/15 07:05:21;;;;;;;1.90;1.20;;;19.70;58.70;;;;;;5050636;28;20247;-82
2021/11/15 07:07:48;;;;;;;2.63;1.38;;;19.80;58.10;;;;;;5036309;28;20159;-82
2021/11/15 07:10:14;;;;;;;2.08;1.20;;;19.70;58.00;;;;;;5051375;28;20598;-83
2021/11/15 07:12:40;;;;;;;1.35;1.05;;;19.80;58.10;;;;;;5034374;28;20264;-82
2021/11/15 07:15:07;;;;;;;1.67;1.10;;;19.70;57.60;;;;;;5036682;28;20143;-82
2021/11/15 07:17:33;;;;;;;2.53;1.13;;;19.80;57.90;;;;;;5036078;28;20166;-82
2021/11/15 07:19:58;;;;;;;1.25;1.10;;;19.80;57.90;;;;;;5052050;28;20151;-82
2021/11/15 07:22:24;;;;;;;2.13;1.20;;;19.80;57.80;;;;;;5050533;28;20155;-82
2021/11/15 07:24:50;;;;;;;1.13;0.90;;;19.70;57.70;;;;;;5034456;28;20563;-81
2021/11/15 07:27:17;;;;;;;1.10;0.98;;;19.80;57.70;;;;;;5034579;28;20296;-82
2021/11/15 07:29:44;;;;;;;1.50;1.15;;;19.80;57.30;;;;;;5019426;28;20258;-82
2021/11/15 07:32:13;;;;;;;1.20;1.00;;;19.80;57.70;;;;;;5038343;28;20151;-82
2021/11/15 07:34:39;;;;;;;1.10;1.00;;;19.80;57.50;;;;;;5038611;28;20287;-82
2021/11/15 07:37:05;;;;;;;1.35;1.10;;;19.80;57.70;;;;;;5036346;28;20174;-82
2021/11/15 07:39:49;;;;;;;1.60;1.20;;;19.80;57.70;;;;;;5035617;28;20265;-81
2021/11/15 07:42:16;;;;;;;1.40;1.10;;;19.80;57.30;;;;;;5053092;28;20248;-82
2021/11/15 07:44:42;;;;;;;1.40;1.00;;;19.80;57.50;;;;;;5036130;28;20282;-81
2021/11/15 07:47:08;;;;;;;1.25;1.10;;;19.80;56.90;;;;;;5053391;28;20522;-81
2021/11/15 07:49:33;;;;;;;2.30;1.08;;;19.80;57.20;;;;;;5040048;28;20613;-80
2021/11/15 07:51:59;;;;;;;1.30;0.90;;;19.80;57.20;;;;;;5040990;28;20533;-82
2021/11/15 07:54:27;;;;;;;0.93;0.90;;;19.80;57.20;;;;;;5041160;28;20155;-81
2021/11/15 07:56:53;;;;;;;3.80;1.20;;;19.90;57.40;;;;;;5054350;28;20182;-81
2021/11/15 07:59:18;;;;;;;1.30;0.98;;;19.80;57.30;;;;;;5039113;28;20159;-81
2021/11/15 08:01:44;;;;;;;2.58;1.25;;;19.90;57.30;;;;;;5041208;28;20219;-81
2021/11/15 08:04:10;;;;;;;1.50;1.15;;;19.90;57.10;;;;;;5054992;28;20169;-80
2021/11/15 08:06:35;;;;;;;1.23;1.00;;;19.90;57.30;;;;;;5039444;28;20151;-80
2021/11/15 08:09:01;;;;;;;1.48;1.10;;;19.90;57.50;;;;;;5056003;28;20166;-81
2021/11/15 08:11:29;;;;;;;2.10;1.20;;;19.90;57.60;;;;;;5024725;28;20196;-81
2021/11/15 08:13:55;;;;;;;1.35;1.10;;;19.90;57.20;;;;;;5024103;28;20229;-81
2021/11/15 08:16:37;;;;;;;2.55;0.98;;;19.90;57.50;;;;;;5058537;28;20246;-80
2021/11/15 08:19:02;;;;;;;1.20;1.10;;;20.00;57.40;;;;;;5023051;28;20162;-80
2021/11/15 08:21:48;;;;;;;1.10;0.88;;;20.00;57.20;;;;;;5057685;28;20702;-81
2021/11/15 08:24:57;;;;;;;2.10;1.00;;;20.00;57.20;;;;;;5057654;28;20146;-81
2021/11/15 08:27:23;;;;;;;1.20;1.00;;;19.90;57.50;;;;;;5055482;28;20732;-81
2021/11/15 08:29:49;;;;;;;3.22;0.85;;;19.90;57.20;;;;;;5023125;28;20181;-81
2021/11/15 08:32:15;;;;;;;3.22;1.02;;;19.90;57.50;;;;;;5057288;28;20501;-80
2021/11/15 08:34:41;;;;;;;1.08;0.85;;;19.90;57.20;;;;;;5022407;28;20190;-81
2021/11/15 08:37:07;;;;;;;2.30;1.00;;;19.90;57.20;;;;;;5006155;28;20167;-81
2021/11/15 08:39:33;;;;;;;1.10;0.93;;;20.00;57.30;;;;;;5022405;28;20180;-81
2021/11/15 08:42:01;;;;;;;1.58;0.95;;;20.00;57.20;;;;;;5056062;28;20233;-81
2021/11/15 08:44:28;;;;;;;1.95;0.90;;;20.00;57.20;;;;;;5039683;28;20212;-81
2021/11/15 08:46:54;;;;;;;1.58;1.02;;;20.00;57.30;;;;;;5022331;28;20205;-83
2021/11/15 08:49:22;;;;;;;1.20;1.10;;;20.00;57.10;;;;;;5022325;28;20158;-81
2021/11/15 08:51:48;;;;;;;2.55;0.98;;;20.00;57.10;;;;;;5028911;28;20178;-81
2021/11/15 08:54:16;;;;;;;3.80;0.90;;;20.00;57.00;;;;;;5056808;28;20238;-81
2021/11/15 08:56:43;;;;;;;3.80;1.20;;;20.00;57.10;;;;;;5039051;28;20155;-81
2021/11/15 08:59:09;;;;;;;3.17;1.00;;;20.00;57.80;;;;;;5055473;28;20154;-80
2021/11/15 09:01:35;;;;;;;6.63;1.10;;;20.00;56.70;;;;;;5038236;28;20162;-81
2021/11/15 09:04:06;;;;;;;2.75;1.10;;;20.00;57.10;;;;;;5055452;28;20159;-81
2021/11/15 09:06:34;;;;;;;3.53;1.15;;;20.00;57.30;;;;;;5024825;28;20184;-81
2021/11/15 09:09:02;;;;;;;10.40;1.33;;;20.00;57.10;;;;;;5040008;28;20244;-80
2021/11/15 09:11:34;;;;;;;4.53;1.17;;;20.00;57.20;;;;;;5057670;28;20164;-81
2021/11/15 09:14:00;;;;;;;5.10;1.02;;;20.00;56.90;;;;;;5077077;28;20328;-81
2021/11/15 09:16:26;;;;;;;2.55;1.30;;;20.00;57.00;;;;;;5080571;28;20179;-81
2021/11/15 09:18:52;;;;;;;2.42;1.17;;;20.00;56.90;;;;;;5030468;28;20166;-82
2021/11/15 09:21:18;;;;;;;5.13;1.10;;;20.10;57.30;;;;;;5029127;28;20184;-82
2021/11/15 09:23:45;;;;;;;5.85;1.30;;;20.00;57.30;;;;;;5043168;28;20168;-83
2021/11/15 09:26:13;;;;;;;8.40;1.55;;;20.00;57.20;;;;;;5044498;28;20158;-83
2021/11/15 09:28:38;;;;;;;9.98;1.35;;;20.00;56.90;;;;;;5046230;28;20569;-82
2021/11/15 09:31:05;;;;;;;2.90;1.30;;;20.00;57.10;;;;;;5044621;28;20251;-82
2021/11/15 09:33:31;;;;;;;5.75;1.50;;;20.00;57.20;;;;;;5045092;28;20254;-82
2021/11/15 09:35:57;;;;;;;11.18;1.70;;;20.00;57.50;;;;;;5046147;28;20161;-82
2021/11/15 09:38:23;;;;;;;5.25;1.50;;;20.00;57.40;;;;;;5030911;28;20273;-82
2021/11/15 09:40:52;;;;;;;5.25;1.52;;;20.00;57.50;;;;;;5034340;28;20656;-81
2021/11/15 09:43:17;;;;;;;4.88;1.42;;;20.00;57.50;;;;;;5026088;28;20182;-82
2021/11/15 09:45:44;;;;;;;4.50;1.33;;;20.00;57.60;;;;;;5039961;28;20166;-82
2021/11/15 09:48:10;;;;;;;7.30;1.35;;;20.00;57.30;;;;;;5041413;28;20188;-82
2021/11/15 09:50:37;;;;;;;7.35;1.45;;;20.00;57.60;;;;;;5057353;28;20154;-81
2021/11/15 09:53:06;;;;;;;3.05;1.23;;;20.00;57.50;;;;;;5039497;28;20202;-81
2021/11/15 09:55:33;;;;;;;4.90;1.20;;;20.00;57.40;;;;;;5038874;28;20154;-81
2021/11/15 09:57:59;;;;;;;9.68;1.38;;;20.00;57.50;;;;;;5039605;28;20173;-81
2021/11/15 10:00:25;;;;;;;10.18;1.42;;;20.00;57.50;;;;;;5006771;28;20539;-82
2021/11/15 10:02:51;;;;;;;3.90;1.20;;;20.00;57.30;;;;;;5039807;28;20221;-82
2021/11/15 10:05:18;;;;;;;4.97;1.10;;;20.00;57.30;;;;;;5023975;28;20178;-83
2021/11/15 10:07:50;;;;;;;4.82;1.40;;;20.10;57.20;;;;;;5043281;28;20225;-83
2021/11/15 10:10:41;;;;;;;3.42;1.10;;;20.00;57.10;;;;;;5024991;28;20224;-83
2021/11/15 10:13:17;;;;;;;6.68;1.30;;;20.00;57.20;;;;;;5035371;28;20230;-83
2021/11/15 10:15:51;;;;;;;4.60;1.27;;;20.00;57.20;;;;;;5024266;28;20183;-82
2021/11/15 10:18:40;;;;;;;4.82;1.23;;;20.00;57.10;;;;;;5021929;28;20241;-82
2021/11/15 10:21:19;;;;;;;4.68;1.30;;;20.00;57.20;;;;;;5024996;28;20159;-82
2021/11/15 10:23:52;;;;;;;3.50;1.20;;;20.00;57.20;;;;;;5020982;28;20226;-82
2021/11/15 10:26:27;;;;;;;3.42;1.30;;;20.00;57.30;;;;;;5017842;28;20266;-82
2021/11/15 10:28:55;;;;;;;4.63;1.10;;;20.00;57.20;;;;;;5019465;28;20157;-83
2021/11/15 10:32:02;;;;;;;3.55;1.38;;;20.00;57.40;;;;;;5020830;28;20230;-83
2021/11/15 10:34:31;;;;;;;4.75;1.13;;;20.00;57.30;;;;;;5039432;28;20683;-83
2021/11/15 10:37:00;;;;;;;2.67;1.15;;;20.00;57.30;;;;;;5039945;28;20648;-83
2021/11/15 10:39:50;;;;;;;2.58;1.13;;;20.00;57.20;;;;;;5039691;28;20150;-82
2021/11/15 10:42:19;;;;;;;5.05;1.13;;;19.90;57.10;;;;;;5055814;28;20528;-83
2021/11/15 10:45:04;;;;;;;4.45;1.17;;;20.00;57.10;;;;;;5039634;28;20665;-82
2021/11/15 10:47:40;;;;;;;4.32;1.17;;;20.00;57.10;;;;;;5039639;28;20154;-82
2021/11/15 10:50:19;;;;;;;3.17;1.20;;;20.00;57.20;;;;;;5038906;28;20154;-82
2021/11/15 10:53:07;;;;;;;4.70;1.35;;;20.00;57.10;;;;;;5040041;28;20649;-82
2021/11/15 10:55:36;;;;;;;2.10;1.20;;;20.00;57.20;;;;;;5056062;28;20178;-82
2021/11/15 10:58:11;;;;;;;5.22;1.30;;;20.00;57.20;;;;;;5055445;28;20161;-82
2021/11/15 11:00:39;;;;;;;4.10;1.23;;;20.00;58.00;;;;;;5039967;28;20156;-82
2021/11/15 11:03:08;;;;;;;2.30;1.20;;;20.00;57.10;;;;;;5056293;28;20158;-83
2021/11/15 11:05:37;;;;;;;1.70;1.42;;;19.90;57.50;;;;;;5041371;28;20157;-82
2021/11/15 11:08:07;;;;;;;4.05;1.25;;;20.00;57.10;;;;;;5025832;28;20158;-83
2021/11/15 11:10:43;;;;;;;2.22;1.10;;;19.90;57.10;;;;;;5025826;28;20241;-82
2021/11/15 11:13:11;;;;;;;5.88;1.38;;;20.00;56.90;;;;;;5043698;28;20221;-83
2021/11/15 11:15:43;;;;;;;1.75;1.00;;;20.00;56.70;;;;;;5058122;28;20173;-83
2021/11/15 11:18:19;;;;;;;3.28;1.02;;;19.90;56.70;;;;;;5057645;28;20177;-82
2021/11/15 11:21:25;;;;;;;3.13;1.05;;;20.00;57.00;;;;;;5041355;28;20186;-82
2021/11/15 11:24:16;;;;;;;2.08;1.08;;;20.00;56.70;;;;;;5056844;28;20536;-81
2021/11/15 11:26:43;;;;;;;3.28;1.08;;;20.00;56.70;;;;;;5056541;28;20224;-82
2021/11/15 11:29:14;;;;;;;3.83;1.08;;;20.00;56.60;;;;;;5042059;28;20629;-83
2021/11/15 11:31:42;;;;;;;1.50;1.13;;;20.00;56.50;;;;;;5043381;28;20169;-82
2021/11/15 11:34:08;;;;;;;3.42;1.27;;;20.00;55.70;;;;;;5058720;28;20276;-83
2021/11/15 11:36:36;;;;;;;1.73;1.08;;;20.00;56.10;;;;;;5024322;28;20193;-82
2021/11/15 11:39:07;;;;;;;2.30;1.15;;;20.00;55.90;;;;;;5040876;28;20185;-82
2021/11/15 11:41:33;;;;;;;2.97;1.20;;;20.00;57.00;;;;;;5056611;28;20194;-82
2021/11/15 11:43:59;;;;;;;2.33;0.90;;;20.00;56.70;;;;;;5054959;28;20570;-82
2021/11/15 11:46:24;;;;;;;3.45;1.25;;;20.00;56.80;;;;;;5055895;28;20177;-81
2021/11/15 11:48:51;;;;;;;3.25;1.33;;;20.00;56.50;;;;;;5055838;28;20523;-82
2021/11/15 11:51:19;;;;;;;3.55;1.33;;;20.00;56.80;;;;;;5039893;28;20663;-82
2021/11/15 11:53:46;;;;;;;3.40;1.20;;;20.00;57.10;;;;;;5040200;28;20244;-81
2021/11/15 11:56:15;;;;;;;1.88;1.00;;;20.10;56.50;;;;;;5058207;28;20154;-81
2021/11/15 11:58:45;;;;;;;3.35;1.23;;;20.00;56.80;;;;;;5059036;28;20170;-82
2021/11/15 12:01:21;;;;;;;1.90;1.10;;;20.00;56.40;;;;;;5059867;28;20602;-81
2021/11/15 12:04:17;;;;;;;2.95;1.30;;;20.00;56.80;;;;;;5057326;28;20157;-82
2021/11/15 12:06:43;;;;;;;2.45;1.23;;;20.00;57.10;;;;;;5042480;28;20166;-82
2021/11/15 12:09:10;;;;;;;1.67;1.00;;;20.00;56.70;;;;;;5044891;28;20225;-82
2021/11/15 12:11:38;;;;;;;2.03;1.10;;;20.00;56.30;;;;;;5043153;28;20170;-81
2021/11/15 12:14:06;;;;;;;2.15;1.02;;;20.00;56.60;;;;;;5075154;28;20243;-82
2021/11/15 12:17:11;;;;;;;2.15;1.10;;;20.00;56.30;;;;;;5047618;28;20221;-82
2021/11/15 12:20:00;;;;;;;5.22;1.25;;;20.00;56.70;;;;;;5080734;28;20153;-81
2021/11/15 12:22:39;;;;;;;2.45;1.10;;;20.00;57.00;;;;;;5046947;28;20177;-82
2021/11/15 12:25:20;;;;;;;2.80;1.25;;;20.00;56.20;;;;;;5048362;28;20259;-81
2021/11/15 12:27:53;;;;;;;4.47;1.40;;;20.00;56.60;;;;;;5063311;28;20173;-82
2021/11/15 12:30:26;;;;;;;4.10;1.20;;;20.00;56.70;;;;;;5061869;28;20153;-82
2021/11/15 12:33:29;;;;;;;2.17;1.02;;;20.00;56.70;;;;;;5080141;28;20188;-82
2021/11/15 12:36:13;;;;;;;1.85;1.17;;;20.00;56.60;;;;;;5067327;28;20146;-82
2021/11/15 12:38:50;;;;;;;4.65;1.23;;;20.00;56.20;;;;;;5062554;28;20176;-82
2021/11/15 12:41:42;;;;;;;1.92;1.23;;;20.00;56.40;;;;;;5037322;28;20459;-81
2021/11/15 12:44:16;;;;;;;3.13;1.23;;;20.00;56.70;;;;;;5037200;28;20309;-82
2021/11/15 12:46:54;;;;;;;4.72;1.25;;;20.00;56.40;;;;;;5017349;28;20183;-82
2021/11/15 12:49:41;;;;;;;1.33;1.10;;;20.00;56.30;;;;;;4987237;28;20190;-82
2021/11/15 12:52:22;;;;;;;1.65;1.00;;;20.00;56.30;;;;;;4996601;28;20226;-83